Helena, Illinois
Current Conditions -  °F | °C
As of 2:53 AM on Monday 22 Dec 2014 (Local Time) from KLWV Reporting Station
Haze Haze  
Wind Chill: -2°   Ceiling: 7000
Heat Index:   Visibility: 6mi
Dew Point: -1°   Wind: 7mph
Humidity: 85%   Direction: 90°E
Pressure: 29.98"   Gusts: NA
Location:  38.793°N, 87.8326°W
Report Text: KLWV 220853Z AUTO 09006KT 6SM BR BKN070 OVC080 01/M01 A2998 RMK AO2 SLP154 T00111011 56016
Loading
Personal Weather Stations






























Interactive Weather Map New forecast layout! Learn more

10-Day Weather Forecast

Advertisements
Track Severe Weather on mobile